WEATHER DATA

YESTERDAY
Time Temp. Dewp. Hum. Wind dir Wind speed Wind gust Bar. 1h Prec. 24h Prec.
00:05 14.4 6.7 60 21 0.3 0.6 1014.6 0.0000 0.0000
00:14 14.3 6.6 60 21 0.3 0.6 1014.5 0.0000 0.0000
00:25 14.2 6.6 60 0 0.3 1014.4 0.0000 0.0000
00:35 14 6.6 61 355 0.3 0.6 1014.5 0.0000 0.0000
00:45 13.8 6.4 61 0 0.3 0.6 1014.4 0.0000 0.0000
00:55 13.7 6.3 61 8 0.3 0.6 1014.4 0.0000 0.0000
01:05 13.6 6.2 61 0 0.6 1014.3 0.0000 0.0000
01:15 13.5 6.4 62 348 0.3 0.6 1014.3 0.0000 0.0000
01:25 13.3 6.2 62 0 0.6 1014.2 0.0000 0.0000
01:35 13.2 6.1 62 0 0.3 0.6 1014.1 0.0000 0.0000
01:45 13.1 6 62 0 0.3 1014 0.0000 0.0000
01:55 13 6.1 63 0 0.3 1013.9 0.0000 0.0000
02:05 12.8 5.9 63 0 0.6 1013.9 0.0000 0.0000
02:16 12.7 6.1 64 0 0.3 1013.9 0.0000 0.0000
02:25 12.5 5.9 64 0 0.6 1013.8 0.0000 0.0000
02:35 12.4 5.8 64 0 0.3 1013.7 0.0000 0.0000
02:46 12.3 5.9 65 0 0.3 1013.7 0.0000 0.0000
02:56 12.1 5.9 66 0 0.3 1013.6 0.0000 0.0000
03:05 12 5.9 66 0 0.3 1013.6 0.0000 0.0000
03:15 11.9 5.8 66 347 0.3 0.6 1013.6 0.0000 0.0000
03:26 11.8 5.7 66 0 0.6 1013.5 0.0000 0.0000
03:36 11.7 5.6 66 0 0.3 1013.5 0.0000 0.0000
03:45 11.6 5.5 66 347 0.3 0.6 1013.5 0.0000 0.0000
03:56 11.6 5.5 66 0 0.3 1013.4 0.0000 0.0000
04:06 11.4 5.3 66 345 0.3 0.6 1013.4 0.0000 0.0000
04:16 11.3 5.4 67 341 0.3 0.8 1013.4 0.0000 0.0000
04:26 11.2 5.3 67 315 0.3 0.6 1013.4 0.0000 0.0000
04:36 11.1 5.2 67 0 0.6 1013.4 0.0000 0.0000
04:46 11 5.1 67 0 0.3 1013.3 0.0000 0.0000
04:56 11 5.1 67 0 0.3 1013.4 0.0000 0.0000
05:06 10.8 5.1 68 0 0.3 1013.3 0.0000 0.0000
05:15 10.7 5 68 0 0.3 1013.2 0.0000 0.0000
05:25 10.6 5.2 69 0 0.3 1013.2 0.0000 0.0000
05:36 10.5 5.1 69 0 0.3 1013.2 0.0000 0.0000
05:46 10.4 5.2 70 270 0.3 0.6 1013.3 0.0000 0.0000
05:56 10.3 5.1 70 0 0.3 1013.3 0.0000 0.0000
06:06 10.3 5.1 70 0 0.3 1013.3 0.0000 0.0000
06:16 10.3 5.1 70 0 0.3 1013.3 0.0000 0.0000
06:26 10.3 5.1 70 0 0.3 1013.3 0.0000 0.0000
06:35 10.4 5.2 70 0 0.3 1013.3 0.0000 0.0000
06:51 10.4 5.4 71 191 0.3 0.6 1013.3 0.0000 0.0000
07:01 10.5 5.5 71 180 0.3 0.6 1013.4 0.0000 0.0000
07:11 10.9 6.1 72 176 0.3 0.6 1013.4 0.0000 0.0000
07:21 11.5 6.6 72 165 0.3 0.6 1013.5 0.0000 0.0000
07:31 12 7.3 73 176 0.3 0.6 1013.5 0.0000 0.0000
07:41 12.7 8 73 220 0.3 1.1 1013.6 0.0000 0.0000
07:51 13.2 8.5 73 209 0.3 1.1 1013.6 0.0000 0.0000
08:01 13.8 8.8 72 195 0.3 1.4 1013.6 0.0000 0.0000
08:11 14.3 9.3 72 198 0.6 1.4 1013.6 0.0000 0.0000
08:21 14.8 9.6 71 208 0.6 1.4 1013.6 0.0000 0.0000
08:32 15.4 10.2 71 237 0.8 2.2 1013.7 0.0000 0.0000
08:41 15.9 10.4 70 217 0.6 1.4 1013.6 0.0000 0.0000
08:51 16.5 10.8 69 189 0.6 1.4 1013.5 0.0000 0.0000
09:02 17.3 11.6 69 199 0.3 1.1 1013.4 0.0000 0.0000
09:12 18 12 68 210 0.3 1.4 1013.4 0.0000 0.0000
09:21 18.4 12.2 67 240 0.6 1.4 1013.4 0.0000 0.0000
09:31 19.2 12.9 67 217 0.6 1.4 1013.4 0.0000 0.0000
09:42 20 13.2 65 233 0.6 1.7 1013.4 0.0000 0.0000
09:52 20.6 13.6 64 222 0.6 1.7 1013.4 0.0000 0.0000
10:01 21 13.7 63 225 0.6 1.9 1013.5 0.0000 0.0000
10:12 21.3 13.7 62 225 0.8 1.7 1013.5 0.0000 0.0000
10:22 21.8 14.2 62 199 0.6 1.4 1013.4 0.0000 0.0000
10:32 22.4 14.5 61 203 0.6 1.7 1013.4 0.0000 0.0000
10:42 22.7 14.3 59 234 0.8 2.2 1013.4 0.0000 0.0000
10:52 23.1 14.7 59 211 0.6 1.4 1013.3 0.0000 0.0000
11:02 23.2 14.2 57 215 0.8 1.7 1013.4 0.0000 0.0000
11:12 23 13.5 55 230 0.8 1.9 1013.4 0.0000 0.0000
11:23 22.9 13.4 55 225 0.8 2.2 1013.3 0.0000 0.0000
11:32 22.8 12.1 51 242 1.4 3.3 1013.3 0.0000 0.0000
11:42 22.9 12.2 51 245 1.4 3.1 1013.3 0.0000 0.0000
11:52 22.7 12.6 53 243 1.4 3.3 1013.2 0.0000 0.0000
12:03 22.9 12.8 53 240 1.4 3.1 1013.1 0.0000 0.0000
12:12 23 12.9 53 243 1.4 3.1 1013.1 0.0000 0.0000
12:22 23.1 13 53 234 1.1 2.8 1013 0.0000 0.0000
12:33 23.2 13.4 54 229 0.8 1.9 1013 0.0000 0.0000
12:43 23.5 13.7 54 227 1.4 3.3 1013 0.0000 0.0000
12:52 23.5 13.1 52 241 1.4 3.3 1013 0.0000 0.0000
13:03 23.4 13 52 250 0.8 2.5 1012.9 0.0000 0.0000
13:13 23.6 13.8 54 222 1.1 2.8 1012.9 0.0000 0.0000
13:23 23.8 13.4 52 236 1.1 2.2 1012.7 0.0000 0.0000
13:32 23.8 13.4 52 270 1.4 3.1 1012.7 0.0000 0.0000
13:43 23.5 12.8 51 259 1.4 4.4 1012.8 0.0000 0.0000
13:53 23.2 12.5 51 262 1.4 3.1 1012.7 0.0000 0.0000
14:03 23.1 12.1 50 262 1.4 3.9 1012.7 0.0000 0.0000
14:13 23.1 12.7 52 239 1.1 3.1 1012.8 0.0000 0.0000
14:23 23.3 11.7 48 270 1.1 3.3 1012.7 0.0000 0.0000
14:33 23.4 11.8 48 255 1.4 3.3 1012.7 0.0000 0.0000
14:43 23.7 12.1 48 241 1.7 3.6 1012.7 0.0000 0.0000
14:54 23.9 11.9 47 289 1.1 2.8 1012.7 0.0000 0.0000
15:03 23.9 11.6 46 283 1.7 3.9 1012.8 0.0000 0.0000
15:13 24 12 47 303 1.4 3.1 1012.8 0.0000 0.0000
15:24 24 11 44 261 1.7 3.9 1012.8 0.0000 0.0000
15:34 24 11 44 303 1.9 3.9 1012.8 0.0000 0.0000
15:43 23.9 10.6 43 254 1.9 4.2 1012.7 0.0000 0.0000
15:53 23.9 10.2 42 270 1.4 3.6 1012.7 0.0000 0.0000
16:04 23.9 10.6 43 257 1.4 3.9 1012.6 0.0000 0.0000
16:14 24 9.2 39 253 1.9 5.6 1012.7 0.0000 0.0000
16:23 24 10.3 42 304 1.4 3.3 1012.6 0.0000 0.0000
16:34 24 7.6 35 270 1.4 3.3 1012.6 0.0000 0.0000
16:44 24 9.2 39 299 1.1 3.6 1012.6 0.0000 0.0000
16:54 23.9 8.7 38 257 1.4 3.3 1012.5 0.0000 0.0000
17:04 24 11 44 295 1.1 3.1 1012.6 0.0000 0.0000
17:14 23.9 11.6 46 304 1.7 3.3 1012.5 0.0000 0.0000
17:24 23.8 11.5 46 298 1.1 2.2 1012.4 0.0000 0.0000
17:34 23.8 11.8 47 311 1.1 2.8 1012.4 0.0000 0.0000
17:44 23.5 11.2 46 299 1.7 3.6 1012.4 0.0000 0.0000
17:50 23.4 11.5 47 316 1.9 4.2 1012.4 0.0000 0.0000
18:00 23.2 11.6 48 319 1.9 3.9 1012.4 0.0000 0.0000
18:10 22.8 10.9 47 325 1.7 4.4 1012.5 0.0000 0.0000
18:20 22.5 11 48 315 1.9 4.7 1012.5 0.0000 0.0000
18:30 22.2 10.7 48 315 2.5 5.3 1012.6 0.0000 0.0000
18:40 21.9 10.4 48 303 1.9 4.2 1012.7 0.0000 0.0000
18:50 21.7 9.9 47 326 2.5 5.3 1012.8 0.0000 0.0000
19:01 21.3 9.2 46 315 2.8 5.8 1012.7 0.0000 0.0000
19:11 21.1 9.4 47 316 2.2 3.6 1012.7 0.0000 0.0000
19:22 20.9 9.2 47 308 1.7 3.3 1012.7 0.0000 0.0000
19:32 20.7 8.4 45 294 1.7 3.6 1012.8 0.0000 0.0000
19:42 20.6 8.3 45 304 1.7 4.2 1012.9 0.0000 0.0000
19:53 20.6 8.9 47 312 1.4 2.8 1012.9 0.0000 0.0000
20:02 20.3 8.6 47 317 1.7 3.3 1013 0.0000 0.0000
20:12 20 8.7 48 308 1.7 3.6 1013 0.0000 0.0000
20:23 19.7 8.4 48 323 1.4 2.8 1013.2 0.0000 0.0000
20:33 19.4 8.1 48 312 1.7 3.6 1013.3 0.0000 0.0000
20:42 19.2 7.9 48 310 1.4 2.5 1013.4 0.0000 0.0000
20:52 19 7.4 47 313 1.4 2.5 1013.6 0.0000 0.0000
21:03 18.8 7.3 47 316 1.7 3.6 1013.7 0.0000 0.0000
21:13 18.5 7 47 310 1.1 2.8 1013.7 0.0000 0.0000
21:22 18 6.5 47 311 1.1 2.8 1013.8 0.0000 0.0000
21:33 17.6 6.5 48 319 0.8 2.8 1013.9 0.0000 0.0000
21:43 17.3 6.5 49 315 0.8 1.7 1014 0.0000 0.0000
21:53 16.9 6.4 50 324 1.1 1.9 1014.1 0.0000 0.0000
22:03 16.5 6.1 50 325 1.1 2.5 1014.2 0.0000 0.0000
22:13 16.1 6 51 329 0.8 1.7 1014.2 0.0000 0.0000
22:23 15.9 6.1 52 338 0.6 1.4 1014.3 0.0000 0.0000
22:33 15.6 5.8 52 334 0.6 1.1 1014.4 0.0000 0.0000
22:43 15.3 5.8 53 339 0.6 1.7 1014.5 0.0000 0.0000
22:53 15 5.5 53 340 0.8 1.7 1014.6 0.0000 0.0000
23:03 14.6 5.1 53 344 0.6 1.4 1014.6 0.0000 0.0000
23:13 14.3 4.9 53 346 0.6 1.1 1014.7 0.0000 0.0000
23:23 13.8 4.7 54 346 0.8 1.7 1014.8 0.0000 0.0000
23:33 13.4 4.6 55 344 0.8 1.7 1014.8 0.0000 0.0000
23:43 13.1 4.8 57 346 1.1 2.2 1014.9 0.0000 0.0000
23:54 12.8 5 59 347 1.1 2.5 1014.9 0.0000 0.0000

DAY STATISTIC

2019-05-24
TEMPERATURE
AVERAGE
17.8
HIGH
24.0
15:13
LOW
10.3
05:56
PRESSURE
AVERAGE
1013.4
HIGH
1014.9
23:43
LOW
1012.4
17:24
DEWPOINT
AVERAGE
8.9
HIGH
14.7
10:52
LOW
4.6
23:33
HUMIDITY
AVERAGE
57
HIGH
73
07:31
LOW
35
16:34
WIND SPEED
AVERAGE
0.9
HIGH
2.8
19:01
WIND GUST
AVERAGE
2.0
HIGH
5.8
19:01
WIND DIRECTION
PREVAILING
NW
26.6%
N
14.0
NE
0.0
E
0.0
SE
0.0
S
7.7
SW
21.0
W
11.9
NW
26.6
PRECIPITATION
RAIN HOUR
0.0
RAIN DAY
0.0
TEMPERATURE (°C)
LOW
10.3
HIGH
24.0
AVERAGE
17.8
PRESSURE (hpa)
LOW
1012.4
HIGH
1014.9
AVERAGE
1013.4
DEVICE